createdAt,value
2023-07-24T00:00:48.950Z,100356.44
2023-07-24T00:03:15.640Z,100358.34
2023-07-24T00:05:42.191Z,100359.44
2023-07-24T00:08:08.721Z,100355.63
2023-07-24T00:10:35.221Z,100361.66
2023-07-24T00:13:02.429Z,100363.81
2023-07-24T00:15:29.003Z,100360.00
2023-07-24T00:17:55.598Z,100353.47
2023-07-24T00:20:22.166Z,100346.38
2023-07-24T00:22:48.712Z,100344.16
2023-07-24T00:25:15.123Z,100333.22
2023-07-24T00:27:41.575Z,100337.00
2023-07-24T00:30:08.659Z,100335.06
2023-07-24T00:32:35.250Z,100327.38
2023-07-24T00:35:02.343Z,100320.53
2023-07-24T00:37:29.683Z,100324.94
2023-07-24T00:39:56.171Z,100324.34
2023-07-24T00:42:23.969Z,100326.56
2023-07-24T00:44:50.434Z,100323.81
2023-07-24T00:47:18.254Z,100320.25
2023-07-24T00:49:47.550Z,100312.63
2023-07-24T00:52:14.588Z,100305.03
2023-07-24T00:54:41.297Z,100300.94
2023-07-24T00:57:08.217Z,100303.41
2023-07-24T00:59:36.888Z,100302.31
2023-07-24T01:02:03.783Z,100302.56
2023-07-24T01:04:30.360Z,100303.13
2023-07-24T01:06:58.128Z,100302.56
2023-07-24T01:09:24.658Z,100297.38
2023-07-24T01:12:06.900Z,100296.53
2023-07-24T01:14:48.334Z,100293.25
2023-07-24T01:17:24.742Z,100300.53
2023-07-24T01:19:57.026Z,100295.09
2023-07-24T01:22:41.204Z,100300.22
2023-07-24T01:25:37.821Z,100290.66
2023-07-24T01:28:08.817Z,100302.34
2023-07-24T01:30:35.676Z,100297.72
2023-07-24T01:33:03.386Z,100301.84
2023-07-24T01:35:31.548Z,100289.81
2023-07-24T01:37:59.508Z,100296.34
2023-07-24T01:40:26.065Z,100289.00
2023-07-24T01:42:53.067Z,100291.41
2023-07-24T01:45:19.652Z,100281.59
2023-07-24T01:47:46.213Z,100271.22
2023-07-24T01:50:12.779Z,100272.81
2023-07-24T01:52:39.525Z,100276.34
2023-07-24T01:55:06.404Z,100271.47
2023-07-24T01:57:32.845Z,100277.75
2023-07-24T01:59:59.285Z,100287.00
2023-07-24T02:02:25.865Z,100279.09
2023-07-24T02:04:52.304Z,100279.66
2023-07-24T02:07:18.724Z,100266.84
2023-07-24T02:09:45.911Z,100270.94
2023-07-24T02:12:12.550Z,100269.88
2023-07-24T02:14:39.138Z,100267.41
2023-07-24T02:17:05.632Z,100269.31
2023-07-24T02:19:32.137Z,100266.03
2023-07-24T02:21:58.636Z,100262.72
2023-07-24T02:24:25.498Z,100257.00
2023-07-24T02:26:52.081Z,100258.91
2023-07-24T02:29:18.584Z,100253.22
2023-07-24T02:31:45.068Z,100246.97
2023-07-24T02:34:11.559Z,100241.22
2023-07-24T02:36:42.402Z,100235.78
2023-07-24T02:39:09.451Z,100239.06
2023-07-24T02:41:35.962Z,100234.44
2023-07-24T02:44:04.442Z,100237.41
2023-07-24T02:46:32.183Z,100245.59
2023-07-24T02:48:58.960Z,100245.88
2023-07-24T02:51:25.601Z,100245.88
2023-07-24T02:53:53.324Z,100244.22
2023-07-24T02:56:19.976Z,100239.84
2023-07-24T02:58:46.447Z,100232.25
2023-07-24T03:01:15.055Z,100240.72
2023-07-24T03:03:42.594Z,100239.06
2023-07-24T03:06:09.607Z,100238.81
2023-07-24T03:08:36.089Z,100221.88
2023-07-24T03:11:05.856Z,100214.53
2023-07-24T03:13:32.414Z,100224.38
2023-07-24T03:15:59.278Z,100233.59
2023-07-24T03:18:26.537Z,100230.59
2023-07-24T03:20:53.732Z,100235.75
2023-07-24T03:23:21.248Z,100215.84
2023-07-24T03:25:47.883Z,100209.56
2023-07-24T03:28:14.375Z,100208.75
2023-07-24T03:30:40.824Z,100219.63
2023-07-24T03:33:08.416Z,100218.59
2023-07-24T03:35:35.033Z,100225.09
2023-07-24T03:38:01.559Z,100216.38
2023-07-24T03:40:28.459Z,100212.84
2023-07-24T03:42:54.949Z,100210.63
2023-07-24T03:45:22.386Z,100217.72
2023-07-24T03:47:48.887Z,100215.78
2023-07-24T03:50:15.918Z,100206.81
2023-07-24T03:52:42.395Z,100210.91
2023-07-24T03:55:09.405Z,100223.16
2023-07-24T03:57:36.040Z,100221.78
2023-07-24T04:00:03.937Z,100217.94
2023-07-24T04:02:40.875Z,100221.72
2023-07-24T04:05:07.856Z,100215.72
2023-07-24T04:07:34.397Z,100212.75
2023-07-24T04:10:00.923Z,100217.41
2023-07-24T04:12:27.437Z,100210.91
2023-07-24T04:14:53.968Z,100206.81
2023-07-24T04:17:21.805Z,100210.63
2023-07-24T04:19:48.412Z,100209.00
2023-07-24T04:22:14.887Z,100214.69
2023-07-24T04:24:41.348Z,100217.94
2023-07-24T04:27:07.793Z,100220.09
2023-07-24T04:29:34.282Z,100212.75
2023-07-24T04:32:00.860Z,100216.03
2023-07-24T04:34:27.357Z,100212.22
2023-07-24T04:36:53.809Z,100212.22
2023-07-24T04:39:20.338Z,100213.03
2023-07-24T04:41:46.881Z,100201.84
2023-07-24T04:44:13.339Z,100203.75
2023-07-24T04:46:39.931Z,100206.75
2023-07-24T04:49:06.492Z,100204.25
2023-07-24T04:51:36.160Z,100205.34
2023-07-24T04:54:03.161Z,100211.88
2023-07-24T04:56:29.916Z,100205.63
2023-07-24T04:58:56.700Z,100200.72
2023-07-24T05:01:23.238Z,100210.53
2023-07-24T05:03:49.801Z,100210.22
2023-07-24T05:06:16.246Z,100214.84
2023-07-24T05:08:43.723Z,100210.78
2023-07-24T05:11:10.251Z,100206.94
2023-07-24T05:13:36.660Z,100214.03
2023-07-24T05:16:03.133Z,100212.72
2023-07-24T05:18:29.727Z,100204.25
2023-07-24T05:20:56.225Z,100208.09
2023-07-24T05:23:22.718Z,100207.88
2023-07-24T05:25:58.040Z,100209.50
2023-07-24T05:28:24.504Z,100204.06
2023-07-24T05:30:51.044Z,100207.28
2023-07-24T05:33:17.892Z,100207.22
2023-07-24T05:35:44.425Z,100211.59
2023-07-24T05:38:10.977Z,100218.41
2023-07-24T05:40:37.397Z,100211.31
2023-07-24T05:43:04.971Z,100212.72
2023-07-24T05:45:31.467Z,100217.06
2023-07-24T05:47:59.071Z,100218.69
2023-07-24T05:50:25.512Z,100211.66
2023-07-24T05:52:51.948Z,100210.84
2023-07-24T05:55:18.533Z,100211.41
2023-07-24T05:57:45.843Z,100214.44
2023-07-24T06:00:12.505Z,100213.34
2023-07-24T06:02:38.943Z,100214.44
2023-07-24T06:05:05.860Z,100216.34
2023-07-24T06:07:32.396Z,100211.94
2023-07-24T06:09:58.801Z,100214.44
2023-07-24T06:12:25.341Z,100211.44
2023-07-24T06:14:52.113Z,100215.00
2023-07-24T06:17:18.518Z,100205.00
2023-07-24T06:19:45.115Z,100210.47
2023-07-24T06:22:11.594Z,100209.13
2023-07-24T06:24:38.964Z,100211.06
2023-07-24T06:27:07.588Z,100206.22
2023-07-24T06:29:34.673Z,100205.44
2023-07-24T06:32:01.398Z,100212.81
2023-07-24T06:34:27.893Z,100222.63
2023-07-24T06:36:54.364Z,100212.56
2023-07-24T06:39:21.476Z,100220.75
2023-07-24T06:41:47.945Z,100217.78
2023-07-24T06:44:14.679Z,100226.25
2023-07-24T06:46:41.144Z,100223.03
2023-07-24T06:49:07.703Z,100224.66
2023-07-24T06:51:34.188Z,100221.41
2023-07-24T06:54:00.661Z,100224.66
2023-07-24T06:56:27.164Z,100227.41
2023-07-24T06:58:54.431Z,100224.66
2023-07-24T07:01:20.918Z,100225.25
2023-07-24T07:03:47.551Z,100235.03
2023-07-24T07:08:43.602Z,100229.03
2023-07-24T07:11:10.240Z,100226.88
2023-07-24T07:13:36.764Z,100234.19
2023-07-24T07:16:03.380Z,100230.09
2023-07-24T07:18:29.863Z,100230.91
2023-07-24T07:20:56.674Z,100230.41
2023-07-24T07:23:23.506Z,100227.97
2023-07-24T07:25:52.299Z,100236.69
2023-07-24T07:28:19.990Z,100230.72
2023-07-24T07:30:46.779Z,100233.44
2023-07-24T07:33:14.630Z,100238.38
2023-07-24T07:35:41.098Z,100233.47
2023-07-24T07:38:07.618Z,100225.59
2023-07-24T07:40:34.234Z,100235.66
2023-07-24T07:43:00.682Z,100226.66
2023-07-24T07:45:27.147Z,100217.38
2023-07-24T07:47:54.612Z,100212.44
2023-07-24T07:50:21.333Z,100208.91
2023-07-24T07:52:52.058Z,100211.91
2023-07-24T07:55:20.156Z,100205.66
2023-07-24T07:57:46.601Z,100205.44
2023-07-24T08:00:13.478Z,100197.25
2023-07-24T08:02:42.671Z,100197.00
2023-07-24T08:05:15.143Z,100198.13
2023-07-24T08:07:44.593Z,100201.97
2023-07-24T08:10:11.115Z,100198.69
2023-07-24T08:12:37.607Z,100200.84
2023-07-24T08:15:04.529Z,100198.94
2023-07-24T08:17:31.244Z,100190.75
2023-07-24T08:19:57.889Z,100199.75
2023-07-24T08:22:25.038Z,100193.72
2023-07-24T08:24:53.401Z,100201.09
2023-07-24T08:27:21.669Z,100196.97
2023-07-24T08:29:52.344Z,100201.63
2023-07-24T08:32:18.820Z,100201.38
2023-07-24T08:34:45.339Z,100209.03
2023-07-24T08:37:12.794Z,100209.34
2023-07-24T08:39:39.839Z,100203.09
2023-07-24T08:42:13.361Z,100202.03
2023-07-24T08:44:40.740Z,100194.13
2023-07-24T08:47:11.165Z,100204.47
2023-07-24T08:49:39.377Z,100208.50
2023-07-24T08:52:06.738Z,100209.63
2023-07-24T08:54:33.808Z,100208.50
2023-07-24T08:57:00.994Z,100203.06
2023-07-24T08:59:27.957Z,100204.97
2023-07-24T09:01:54.590Z,100210.16
2023-07-24T09:04:21.057Z,100194.28
2023-07-24T09:06:47.947Z,100197.06
2023-07-24T09:09:15.823Z,100199.00
2023-07-24T09:11:54.846Z,100215.91
2023-07-24T09:14:33.346Z,100209.63
2023-07-24T09:17:04.562Z,100202.25
2023-07-24T09:19:32.153Z,100195.75
2023-07-24T09:22:14.037Z,100198.47
2023-07-24T09:24:52.143Z,100193.31
2023-07-24T09:27:19.340Z,100187.28
2023-07-24T09:29:47.411Z,100190.59
2023-07-24T09:32:25.724Z,100191.66
2023-07-24T09:34:52.931Z,100188.94
2023-07-24T09:37:30.387Z,100186.47
2023-07-24T09:39:57.024Z,100182.34
2023-07-24T09:42:31.922Z,100171.47
2023-07-24T09:44:58.470Z,100173.06
2023-07-24T09:47:51.037Z,100168.41
2023-07-24T09:50:11.847Z,100173.56
2023-07-24T09:52:43.068Z,100171.38
2023-07-24T09:55:16.447Z,100168.66
2023-07-24T09:57:45.056Z,100162.63
2023-07-24T10:00:13.347Z,100167.56
2023-07-24T10:02:41.021Z,100167.03
2023-07-24T10:05:08.237Z,100169.75
2023-07-24T10:07:34.920Z,100161.56
2023-07-24T10:10:02.914Z,100172.50
2023-07-24T10:12:31.584Z,100174.13
2023-07-24T10:14:58.582Z,100171.44
2023-07-24T10:17:38.850Z,100173.03
2023-07-24T10:20:13.212Z,100162.31
2023-07-24T10:22:44.498Z,100161.75
2023-07-24T10:25:12.865Z,100148.28
2023-07-24T10:27:47.452Z,100149.91
2023-07-24T10:30:32.254Z,100153.75
2023-07-24T10:33:12.620Z,100160.53
2023-07-24T10:35:44.705Z,100158.31
2023-07-24T10:38:12.398Z,100159.69
2023-07-24T10:40:40.989Z,100161.88
2023-07-24T10:43:19.107Z,100162.19
2023-07-24T10:45:54.212Z,100158.41
2023-07-24T10:48:27.420Z,100161.41
2023-07-24T10:50:55.162Z,100154.31
2023-07-24T10:53:24.813Z,100166.06
2023-07-24T10:55:52.603Z,100160.56
2023-07-24T10:58:19.294Z,100163.53
2023-07-24T11:00:48.384Z,100168.16
2023-07-24T11:03:16.172Z,100168.19
2023-07-24T11:05:43.827Z,100173.16
2023-07-24T11:08:16.589Z,100165.78
2023-07-24T11:10:49.289Z,100163.31
2023-07-24T11:13:21.666Z,100163.34
2023-07-24T11:15:49.762Z,100178.97
2023-07-24T11:18:17.253Z,100172.69
2023-07-24T11:20:46.935Z,100179.25
2023-07-24T11:23:14.079Z,100174.06
2023-07-24T11:25:41.816Z,100172.09
2023-07-24T11:28:09.660Z,100184.72
2023-07-24T11:30:36.332Z,100187.97
2023-07-24T11:33:06.632Z,100195.63
2023-07-24T11:35:33.922Z,100204.38
2023-07-24T11:38:00.551Z,100203.03
2023-07-24T11:40:36.050Z,100206.91
2023-07-24T11:43:05.910Z,100210.19
2023-07-24T11:45:42.001Z,100206.09
2023-07-24T11:48:12.687Z,100205.56
2023-07-24T11:50:47.524Z,100209.13
2023-07-24T11:53:40.351Z,100204.97
2023-07-24T11:56:15.396Z,100201.72
2023-07-24T11:58:41.904Z,100207.75
2023-07-24T12:01:08.357Z,100199.81
2023-07-24T12:03:35.935Z,100199.81
2023-07-24T12:06:03.222Z,100202.50
2023-07-24T12:08:36.773Z,100205.72
2023-07-24T12:11:03.774Z,100213.38
2023-07-24T12:13:30.327Z,100211.69
2023-07-24T12:15:56.990Z,100215.53
2023-07-24T12:18:23.494Z,100213.09
2023-07-24T12:20:49.972Z,100218.88
2023-07-24T12:23:17.294Z,100207.91
2023-07-24T12:25:43.936Z,100211.25
2023-07-24T12:28:10.492Z,100213.16
2023-07-24T12:30:36.891Z,100200.25
2023-07-24T12:33:03.626Z,100199.41
2023-07-24T12:35:30.232Z,100206.81
2023-07-24T12:37:56.739Z,100206.28
2023-07-24T12:40:23.560Z,100200.25
2023-07-24T12:42:50.298Z,100203.28
2023-07-24T12:45:16.732Z,100212.28
2023-07-24T12:47:44.195Z,100209.56
2023-07-24T12:50:10.728Z,100209.25
2023-07-24T12:52:37.281Z,100220.50
2023-07-24T12:55:04.701Z,100212.81
2023-07-24T12:57:31.174Z,100210.03
2023-07-24T12:59:57.637Z,100213.88
2023-07-24T13:02:24.198Z,100213.63
2023-07-24T13:04:50.978Z,100207.59
2023-07-24T13:07:17.644Z,100215.00
2023-07-24T13:09:44.152Z,100213.91
2023-07-24T13:12:11.427Z,100212.56
2023-07-24T13:14:40.281Z,100211.47
2023-07-24T13:17:10.096Z,100213.38
2023-07-24T13:19:36.648Z,100224.88
2023-07-24T13:22:03.180Z,100220.25
2023-07-24T13:24:29.723Z,100235.06
2023-07-24T13:26:56.192Z,100229.56
2023-07-24T13:29:25.308Z,100236.69
2023-07-24T13:31:53.353Z,100240.78
2023-07-24T13:34:20.868Z,100242.19
2023-07-24T13:36:50.782Z,100240.00
2023-07-24T13:39:18.126Z,100248.22
2023-07-24T13:41:44.642Z,100252.59
2023-07-24T13:44:11.293Z,100256.16
2023-07-24T13:46:40.420Z,100256.41
2023-07-24T13:49:07.508Z,100252.34
2023-07-24T13:51:34.008Z,100256.16
2023-07-24T13:54:02.518Z,100242.75
2023-07-24T13:56:30.746Z,100251.22
2023-07-24T13:58:57.302Z,100251.50
2023-07-24T14:01:23.806Z,100253.41
2023-07-24T14:03:51.453Z,100259.47
2023-07-24T14:06:18.359Z,100270.94
2023-07-24T14:08:44.792Z,100275.59
2023-07-24T14:11:11.311Z,100264.41
2023-07-24T14:13:37.789Z,100263.59
2023-07-24T14:16:04.519Z,100269.31
2023-07-24T14:18:31.044Z,100270.16
2023-07-24T14:20:57.689Z,100273.69
2023-07-24T14:23:24.241Z,100274.78
2023-07-24T14:25:53.214Z,100279.16
2023-07-24T14:28:19.701Z,100290.63
2023-07-24T14:30:46.183Z,100292.53
2023-07-24T14:33:12.680Z,100301.81
2023-07-24T14:35:39.205Z,100308.09
2023-07-24T14:38:05.799Z,100294.44
2023-07-24T14:40:32.305Z,100301.25
2023-07-24T14:42:58.723Z,100313.78
2023-07-24T14:45:25.956Z,100309.91
2023-07-24T14:47:52.545Z,100325.72
2023-07-24T14:50:18.971Z,100340.19
2023-07-24T14:52:45.454Z,100339.53
2023-07-24T14:55:11.979Z,100343.31
2023-07-24T14:57:38.466Z,100335.94
2023-07-24T15:00:05.562Z,100342.19
2023-07-24T15:02:33.865Z,100343.84
2023-07-24T15:05:00.416Z,100341.69
2023-07-24T15:07:26.932Z,100340.28
2023-07-24T15:09:53.400Z,100350.91
2023-07-24T15:12:19.956Z,100345.66
2023-07-24T15:14:46.559Z,100352.78
2023-07-24T15:17:15.588Z,100361.47
2023-07-24T15:19:42.087Z,100361.97
2023-07-24T15:22:08.581Z,100364.09
2023-07-24T15:24:35.074Z,100367.09
2023-07-24T15:27:08.834Z,100375.84
2023-07-24T15:29:37.167Z,100382.66
2023-07-24T15:32:04.066Z,100379.28
2023-07-24T15:34:30.711Z,100384.16
2023-07-24T15:36:57.230Z,100383.34
2023-07-24T15:39:23.865Z,100389.72
2023-07-24T15:41:50.501Z,100378.56
2023-07-24T15:44:17.034Z,100379.09
2023-07-24T15:46:44.787Z,100385.91
2023-07-24T15:49:11.452Z,100391.34
2023-07-24T15:51:40.900Z,100396.00
2023-07-24T15:54:09.221Z,100391.56
2023-07-24T15:56:35.718Z,100391.03
2023-07-24T15:59:02.199Z,100397.28
2023-07-24T16:01:29.331Z,100409.06
2023-07-24T16:03:56.331Z,100398.97
2023-07-24T16:06:22.856Z,100407.41
2023-07-24T16:08:49.354Z,100406.28
2023-07-24T16:11:15.847Z,100413.91
2023-07-24T16:13:44.041Z,100415.88
2023-07-24T16:16:10.863Z,100413.44
2023-07-24T16:18:37.583Z,100410.44
2023-07-24T16:21:04.127Z,100424.41
2023-07-24T16:23:30.625Z,100425.47
2023-07-24T16:25:57.103Z,100421.06
2023-07-24T16:28:23.873Z,100421.09
2023-07-24T16:30:50.417Z,100421.69
2023-07-24T16:33:23.745Z,100425.00
2023-07-24T16:35:51.216Z,100419.53
2023-07-24T16:38:17.745Z,100427.16
2023-07-24T16:40:45.518Z,100430.16
2023-07-24T16:43:12.107Z,100436.09
2023-07-24T16:45:38.576Z,100440.47
2023-07-24T16:48:05.367Z,100438.88
2023-07-24T16:50:33.075Z,100429.88
2023-07-24T16:52:59.705Z,100439.47
2023-07-24T16:55:27.888Z,100440.25
2023-07-24T16:57:56.349Z,100444.84
2023-07-24T17:00:22.870Z,100445.72
2023-07-24T17:02:49.423Z,100445.97
2023-07-24T17:05:16.187Z,100439.78
2023-07-24T17:07:42.682Z,100443.56
2023-07-24T17:10:10.402Z,100443.72
2023-07-24T17:12:37.024Z,100448.06
2023-07-24T17:15:03.800Z,100460.66
2023-07-24T17:17:30.388Z,100471.28
2023-07-24T17:19:56.833Z,100471.25
2023-07-24T17:22:23.336Z,100480.53
2023-07-24T17:24:49.791Z,100473.47
2023-07-24T17:27:16.447Z,100479.34
2023-07-24T17:29:42.991Z,100484.47
2023-07-24T17:32:09.429Z,100491.19
2023-07-24T17:34:35.916Z,100497.94
2023-07-24T17:37:02.377Z,100494.88
2023-07-24T17:39:29.509Z,100496.03
2023-07-24T17:41:55.994Z,100497.50
2023-07-24T17:44:22.447Z,100507.56
2023-07-24T17:46:48.972Z,100522.88
2023-07-24T17:49:15.500Z,100518.41
2023-07-24T17:51:42.049Z,100520.06
2023-07-24T17:54:08.502Z,100530.72
2023-07-24T17:56:34.991Z,100522.16
2023-07-24T17:59:01.477Z,100528.41
2023-07-24T18:01:28.082Z,100527.34
2023-07-24T18:03:54.635Z,100530.38
2023-07-24T18:06:21.291Z,100540.88
2023-07-24T18:08:47.806Z,100531.81
2023-07-24T18:11:14.318Z,100536.84
2023-07-24T18:13:40.810Z,100525.69
2023-07-24T18:16:07.306Z,100533.25
2023-07-24T18:18:33.880Z,100531.28
2023-07-24T18:21:08.354Z,100539.19
2023-07-24T18:23:36.068Z,100537.88
2023-07-24T18:26:02.806Z,100548.13
2023-07-24T18:28:29.390Z,100532.81
2023-07-24T18:30:55.829Z,100532.00
2023-07-24T18:33:22.332Z,100541.03
2023-07-24T18:35:49.555Z,100550.41
2023-07-24T18:38:16.732Z,100538.75
2023-07-24T18:40:43.188Z,100544.28
2023-07-24T18:43:09.704Z,100540.69
2023-07-24T18:45:36.156Z,100548.16
2023-07-24T18:48:03.058Z,100562.09
2023-07-24T18:50:29.908Z,100556.63
2023-07-24T18:52:56.572Z,100560.38
2023-07-24T18:55:23.158Z,100562.50
2023-07-24T18:57:49.762Z,100563.59
2023-07-24T19:00:18.073Z,100563.03
2023-07-24T19:02:45.144Z,100568.50
2023-07-24T19:05:11.878Z,100571.72
2023-07-24T19:07:38.399Z,100572.22
2023-07-24T19:10:10.113Z,100574.13
2023-07-24T19:12:38.501Z,100588.47
2023-07-24T19:15:06.470Z,100591.09
2023-07-24T19:17:33.028Z,100588.09
2023-07-24T19:19:59.481Z,100593.66
2023-07-24T19:22:26.020Z,100594.19
2023-07-24T19:24:54.952Z,100598.56
2023-07-24T19:27:22.886Z,100601.06
2023-07-24T19:29:49.413Z,100600.72
2023-07-24T19:32:15.871Z,100603.41
2023-07-24T19:34:44.808Z,100603.97
2023-07-24T19:37:11.739Z,100607.28
2023-07-24T19:39:41.103Z,100609.34
2023-07-24T19:42:10.330Z,100604.88
2023-07-24T19:44:37.888Z,100619.84
2023-07-24T19:47:05.078Z,100614.72
2023-07-24T19:49:34.196Z,100625.09
2023-07-24T19:52:01.657Z,100629.50
2023-07-24T19:54:29.986Z,100630.06
2023-07-24T19:56:57.124Z,100628.41
2023-07-24T19:59:24.160Z,100634.41
2023-07-24T20:01:50.640Z,100633.84
2023-07-24T20:04:17.240Z,100640.56
2023-07-24T20:06:43.733Z,100636.34
2023-07-24T20:09:10.314Z,100631.38
2023-07-24T20:11:37.147Z,100641.78
2023-07-24T20:14:03.659Z,100642.88
2023-07-24T20:16:30.194Z,100647.50
2023-07-24T20:18:56.650Z,100649.63
2023-07-24T20:21:23.264Z,100657.72
2023-07-24T20:23:49.808Z,100646.56
2023-07-24T20:26:19.079Z,100660.19
2023-07-24T20:28:46.932Z,100653.91
2023-07-24T20:31:13.761Z,100663.19
2023-07-24T20:33:40.245Z,100664.00
2023-07-24T20:36:07.832Z,100661.88
2023-07-24T20:38:34.846Z,100668.13
2023-07-24T20:41:01.980Z,100671.41
2023-07-24T20:43:29.105Z,100671.41
2023-07-24T20:45:55.622Z,100668.97
2023-07-24T20:48:22.898Z,100668.69
2023-07-24T20:50:49.774Z,100668.38
2023-07-24T20:53:16.228Z,100674.88
2023-07-24T20:55:42.702Z,100681.66
2023-07-24T20:58:11.061Z,100679.19
2023-07-24T21:00:37.488Z,100683.81
2023-07-24T21:03:04.274Z,100681.09
2023-07-24T21:05:30.818Z,100678.63
2023-07-24T21:07:59.753Z,100685.94
2023-07-24T21:10:26.365Z,100687.84
2023-07-24T21:12:52.847Z,100685.63
2023-07-24T21:15:19.280Z,100684.78
2023-07-24T21:17:45.883Z,100682.31
2023-07-24T21:20:12.860Z,100681.75
2023-07-24T21:22:39.338Z,100681.97
2023-07-24T21:25:06.197Z,100678.69
2023-07-24T21:27:32.692Z,100681.91
2023-07-24T21:29:59.152Z,100684.25
2023-07-24T21:32:25.719Z,100681.78
2023-07-24T21:34:52.250Z,100667.00
2023-07-24T21:37:18.717Z,100678.13
2023-07-24T21:39:45.196Z,100684.06
2023-07-24T21:42:11.749Z,100682.41
2023-07-24T21:44:38.300Z,100683.75
2023-07-24T21:47:05.499Z,100679.59
2023-07-24T21:49:32.738Z,100683.41
2023-07-24T21:52:01.190Z,100687.44
2023-07-24T21:54:27.696Z,100689.31
2023-07-24T21:56:54.357Z,100685.78
2023-07-24T21:59:20.785Z,100692.03
2023-07-24T22:01:47.213Z,100692.88
2023-07-24T22:04:15.173Z,100700.22
2023-07-24T22:06:41.667Z,100692.31
2023-07-24T22:09:08.131Z,100694.44
2023-07-24T22:11:36.762Z,100686.75
2023-07-24T22:14:03.379Z,100692.09
2023-07-24T22:16:29.911Z,100690.44
2023-07-24T22:18:56.494Z,100694.47
2023-07-24T22:21:22.911Z,100694.94
2023-07-24T22:23:49.472Z,100692.72
2023-07-24T22:26:15.872Z,100682.91
2023-07-24T22:28:42.364Z,100685.63
2023-07-24T22:31:10.246Z,100689.41
2023-07-24T22:33:36.864Z,100685.06
2023-07-24T22:36:03.755Z,100684.22
2023-07-24T22:38:30.355Z,100690.97
2023-07-24T22:40:56.796Z,100690.97
2023-07-24T22:43:23.420Z,100687.91
2023-07-24T22:45:50.028Z,100694.16
2023-07-24T22:48:17.082Z,100694.16
2023-07-24T22:50:43.645Z,100695.84
2023-07-24T22:53:10.191Z,100695.84
2023-07-24T22:55:36.683Z,100692.31
2023-07-24T22:58:04.560Z,100688.72
2023-07-24T23:00:31.101Z,100689.56
2023-07-24T23:02:57.683Z,100696.66
2023-07-24T23:05:24.224Z,100694.16
2023-07-24T23:07:54.188Z,100693.34
2023-07-24T23:10:20.781Z,100692.53
2023-07-24T23:12:48.409Z,100691.94
2023-07-24T23:15:15.239Z,100692.19
2023-07-24T23:17:41.764Z,100685.91
2023-07-24T23:20:08.885Z,100685.34
2023-07-24T23:22:35.378Z,100687.25
2023-07-24T23:25:01.840Z,100694.81
2023-07-24T23:27:28.480Z,100688.19
2023-07-24T23:29:55.076Z,100691.97
2023-07-24T23:32:21.545Z,100684.03
2023-07-24T23:34:48.034Z,100688.91
2023-07-24T23:37:14.508Z,100687.50
2023-07-24T23:39:40.999Z,100688.31
2023-07-24T23:42:07.505Z,100682.06
2023-07-24T23:44:33.987Z,100682.31
2023-07-24T23:47:00.551Z,100678.97
2023-07-24T23:49:27.011Z,100681.13
2023-07-24T23:51:53.490Z,100686.56
2023-07-24T23:54:19.950Z,100689.50
2023-07-24T23:56:46.395Z,100686.47
2023-07-24T23:59:12.960Z,100688.03
